Startpagina
METAR-TAF:

METAR-TAF

Vliegvelden :

Dar es Salaam, Tanzania

Julius Nyerere International Airport

breedte: 06-52S, lengte: 039-12E, hoogte: 55 m

Actueel weer

Dit bericht is 2 uur en het 12 minuten geleden gemaakt, om 02:00 UTC
Weinig wind
Temperatuur 25°C
Vochtigheid 94%
Druk 1010 hPa
Zicht 10 km of meer
Weinig wolken op 1600 ft

METAR: HTDA 240200Z 00000KT 9999 FEW016 25/24 Q1010 NOSIG

Tijdstip: 07:12 (04:12 UTC)

Verwachting

Dit bericht is 5 uur en het 12 minuten geleden gemaakt, om 23:00 UTC
Verwachting geldig van 24 om 00 UTC tot 25 om 06 UTC
Wind kt uit het noorden
Zicht 10 km of meer
Weinig wolken op 1600 ft
Wijzigt naar
van 24 om 04 UTC tot 24 om 07 UTC
Wind 5 kt uit het westzuidwesten
Tijdelijke
van 24 om 08 UTC tot 24 om 12 UTC
Wind 10 kt uit het oostnoordoosten
Gebroken wolken op 2300 ft
Weinig wolken op 2500 ft, Cumulonimbus.
regenbuien

TAF: HTDA 232300Z 2400/2506 00000KT 9999 FEW016 BECMG 2404/2407 24005KT TEMPO 2408/2412 06010KT SHRA BKN023 FEW025CB

Waarnemingen en weersverwachtingen van meer dan 4000 vliegvelden (METAR en TAF).

De beschikbare stations zijn de gele en rode punten op de kaart.

Ga met uw muis naar het station om de naam te zien.

Klik dan om waarnemingen en weersverwachtingen te zien.

kaart wijzigen: klik op de groene knoppen met een zwart kruis om in te zoomen, op de groene knop met een streepje om uit te zoomen of op de groene pijlen voor aangrenzende kaarten.


METAR-TAF: